createdAt,value
2023-01-28T00:02:27.326Z,97154.19
2023-01-28T00:04:55.474Z,97150.63
2023-01-28T00:07:25.011Z,97156.00
2023-01-28T00:09:53.092Z,97158.69
2023-01-28T00:12:21.211Z,97155.16
2023-01-28T00:14:49.235Z,97157.91
2023-01-28T00:17:17.283Z,97157.06
2023-01-28T00:19:45.479Z,97149.97
2023-01-28T00:22:13.522Z,97154.47
2023-01-28T00:24:42.965Z,97166.19
2023-01-28T00:27:11.126Z,97159.84
2023-01-28T00:29:39.825Z,97161.69
2023-01-28T00:32:07.921Z,97163.50
2023-01-28T00:34:36.140Z,97169.81
2023-01-28T00:37:08.092Z,97166.28
2023-01-28T00:39:36.276Z,97168.97
2023-01-28T00:42:06.680Z,97172.59
2023-01-28T00:44:34.768Z,97171.66
2023-01-28T00:47:04.334Z,97178.03
2023-01-28T00:49:32.387Z,97184.34
2023-01-28T00:52:00.559Z,97174.59
2023-01-28T00:54:28.590Z,97170.09
2023-01-28T00:56:56.703Z,97178.16
2023-01-28T00:59:27.892Z,97180.81
2023-01-28T01:02:12.922Z,97183.59
2023-01-28T01:04:41.201Z,97186.25
2023-01-28T01:07:09.259Z,97181.78
2023-01-28T01:09:37.476Z,97178.22
2023-01-28T01:12:05.799Z,97177.38
2023-01-28T01:14:35.702Z,97176.41
2023-01-28T01:17:03.840Z,97188.88
2023-01-28T01:19:32.481Z,97182.75
2023-01-28T01:22:01.632Z,97179.19
2023-01-28T01:24:31.410Z,97180.06
2023-01-28T01:27:00.385Z,97188.13
2023-01-28T01:29:30.039Z,97183.81
2023-01-28T01:31:59.554Z,97186.38
2023-01-28T01:34:27.707Z,97182.81
2023-01-28T01:36:55.892Z,97178.44
2023-01-28T01:39:24.079Z,97179.38
2023-01-28T01:41:52.171Z,97176.63
2023-01-28T01:44:53.897Z,97175.00
2023-01-28T01:47:23.803Z,97182.16
2023-01-28T01:49:51.975Z,97183.03
2023-01-28T01:52:21.371Z,97189.28
2023-01-28T01:54:51.140Z,97188.41
2023-01-28T01:57:24.888Z,97183.97
2023-01-28T01:59:53.130Z,97191.19
2023-01-28T02:02:21.209Z,97195.69
2023-01-28T02:04:50.728Z,97193.94
2023-01-28T02:07:18.886Z,97187.75
2023-01-28T02:09:47.218Z,97195.69
2023-01-28T02:12:15.955Z,97202.09
2023-01-28T02:14:45.517Z,97202.09
2023-01-28T02:17:13.673Z,97197.59
2023-01-28T02:19:44.273Z,97203.84
2023-01-28T02:22:31.780Z,97201.16
2023-01-28T02:25:32.211Z,97203.84
2023-01-28T02:28:11.032Z,97211.88
2023-01-28T02:30:41.467Z,97204.88
2023-01-28T02:33:10.943Z,97209.38
2023-01-28T02:35:40.819Z,97219.25
2023-01-28T02:38:10.256Z,97207.69
2023-01-28T02:41:00.904Z,97207.56
2023-01-28T02:43:34.966Z,97207.69
2023-01-28T02:46:22.480Z,97197.78
2023-01-28T02:48:50.644Z,97188.91
2023-01-28T02:51:24.886Z,97190.72
2023-01-28T02:53:55.082Z,97191.66
2023-01-28T02:56:29.604Z,97184.47
2023-01-28T02:59:23.854Z,97182.66
2023-01-28T03:01:58.438Z,97181.81
2023-01-28T03:04:29.817Z,97186.28
2023-01-28T03:07:00.031Z,97182.66
2023-01-28T03:09:28.198Z,97177.41
2023-01-28T03:12:15.050Z,97186.41
2023-01-28T03:15:02.618Z,97175.78
2023-01-28T03:17:50.940Z,97174.91
2023-01-28T03:20:36.833Z,97176.66
2023-01-28T03:23:26.469Z,97177.59
2023-01-28T03:26:12.807Z,97186.63
2023-01-28T03:28:58.076Z,97184.88
2023-01-28T03:31:44.981Z,97189.47
2023-01-28T03:34:31.755Z,97194.84
2023-01-28T03:37:00.179Z,97185.16
2023-01-28T03:39:47.401Z,97187.84
2023-01-28T03:42:16.613Z,97181.53
2023-01-28T03:45:09.359Z,97182.41
2023-01-28T03:47:40.756Z,97194.94
2023-01-28T03:50:12.136Z,97196.75
2023-01-28T03:52:49.424Z,97192.25
2023-01-28T03:55:30.918Z,97194.06
2023-01-28T03:57:59.144Z,97199.44
2023-01-28T04:00:27.288Z,97198.56
2023-01-28T04:02:58.145Z,97199.44
2023-01-28T04:05:26.494Z,97187.00
2023-01-28T04:07:55.897Z,97193.19
2023-01-28T04:10:49.782Z,97185.25
2023-01-28T04:13:23.056Z,97187.94
2023-01-28T04:15:51.547Z,97188.91
2023-01-28T04:18:27.321Z,97186.25
2023-01-28T04:20:57.696Z,97186.25
2023-01-28T04:23:25.986Z,97190.63
2023-01-28T04:25:54.100Z,97184.41
2023-01-28T04:28:23.985Z,97185.47
2023-01-28T04:30:53.256Z,97186.31
2023-01-28T04:33:57.954Z,97184.59
2023-01-28T04:36:40.251Z,97189.97
2023-01-28T04:39:24.433Z,97196.19
2023-01-28T04:42:17.582Z,97195.22
2023-01-28T04:45:12.816Z,97202.50
2023-01-28T04:48:01.071Z,97207.88
2023-01-28T04:50:53.104Z,97212.34
2023-01-28T04:53:34.423Z,97215.03
2023-01-28T04:56:08.883Z,97220.41
2023-01-28T04:58:37.716Z,97218.81
2023-01-28T05:01:10.705Z,97217.94
2023-01-28T05:03:38.855Z,97228.56
2023-01-28T05:06:10.432Z,97220.50
2023-01-28T05:08:42.907Z,97226.84
2023-01-28T05:11:11.106Z,97225.75
2023-01-28T05:13:39.810Z,97232.00
2023-01-28T05:16:09.545Z,97233.75
2023-01-28T05:18:38.163Z,97241.78
2023-01-28T05:21:13.383Z,97232.00
2023-01-28T05:23:41.850Z,97240.03
2023-01-28T05:26:10.439Z,97241.84
2023-01-28T05:28:38.483Z,97251.75
2023-01-28T05:31:06.840Z,97249.81
2023-01-28T05:33:35.152Z,97245.41
2023-01-28T05:36:05.537Z,97255.94
2023-01-28T05:38:35.154Z,97247.16
2023-01-28T05:41:03.331Z,97248.09
2023-01-28T05:43:31.448Z,97253.44
2023-01-28T05:46:18.375Z,97262.16
2023-01-28T05:49:01.853Z,97269.25
2023-01-28T05:51:51.603Z,97255.19
2023-01-28T05:54:23.758Z,97265.91
2023-01-28T05:56:51.927Z,97278.25
2023-01-28T05:59:20.060Z,97276.44
2023-01-28T06:01:50.546Z,97280.25
2023-01-28T06:04:19.009Z,97282.94
2023-01-28T06:06:47.487Z,97278.34
2023-01-28T06:09:16.148Z,97286.50
2023-01-28T06:11:46.671Z,97296.25
2023-01-28T06:14:15.591Z,97298.84
2023-01-28T06:17:18.716Z,97296.06
2023-01-28T06:20:03.037Z,97293.38
2023-01-28T06:22:32.749Z,97301.44
2023-01-28T06:25:01.469Z,97306.59
2023-01-28T06:27:30.961Z,97315.50
2023-01-28T06:29:59.067Z,97314.72
2023-01-28T06:32:27.299Z,97313.88
2023-01-28T06:34:55.498Z,97312.06
2023-01-28T06:37:26.242Z,97318.38
2023-01-28T06:39:54.457Z,97324.53
2023-01-28T06:42:22.696Z,97328.03
2023-01-28T06:44:52.218Z,97322.69
2023-01-28T06:47:20.322Z,97328.91
2023-01-28T06:49:48.467Z,97335.03
2023-01-28T06:52:16.541Z,97338.59
2023-01-28T06:54:44.649Z,97345.66
2023-01-28T06:57:12.703Z,97345.59
2023-01-28T06:59:40.843Z,97349.88
2023-01-28T07:02:12.301Z,97355.19
2023-01-28T07:04:40.498Z,97360.53
2023-01-28T07:07:08.711Z,97363.13
2023-01-28T07:09:36.847Z,97357.75
2023-01-28T07:12:06.207Z,97360.34
2023-01-28T07:14:34.295Z,97359.47
2023-01-28T07:17:02.423Z,97358.53
2023-01-28T07:19:31.872Z,97360.22
2023-01-28T07:22:00.992Z,97355.75
2023-01-28T07:24:29.160Z,97363.78
2023-01-28T07:26:57.353Z,97362.84
2023-01-28T07:29:25.408Z,97364.56
2023-01-28T07:31:53.623Z,97367.13
2023-01-28T07:34:21.871Z,97368.00
2023-01-28T07:36:51.292Z,97364.38
2023-01-28T07:39:19.398Z,97371.56
2023-01-28T07:41:47.487Z,97365.22
2023-01-28T07:44:32.219Z,97378.63
2023-01-28T07:47:00.382Z,97376.91
2023-01-28T07:49:28.706Z,97381.53
2023-01-28T07:51:58.174Z,97381.53
2023-01-28T07:54:27.536Z,97380.53
2023-01-28T07:56:55.677Z,97387.66
2023-01-28T07:59:23.825Z,97384.00
2023-01-28T08:01:54.737Z,97384.88
2023-01-28T08:04:23.228Z,97388.41
2023-01-28T08:06:52.363Z,97385.63
2023-01-28T08:09:21.867Z,97386.50
2023-01-28T08:11:49.907Z,97386.50
2023-01-28T08:14:17.984Z,97375.78
2023-01-28T08:16:46.110Z,97389.09
2023-01-28T08:19:14.283Z,97383.72
2023-01-28T08:21:42.415Z,97386.41
2023-01-28T08:24:10.606Z,97391.75
2023-01-28T08:26:40.140Z,97392.63
2023-01-28T08:29:08.250Z,97390.81
2023-01-28T08:31:36.407Z,97391.69
2023-01-28T08:34:04.565Z,97395.16
2023-01-28T08:36:32.594Z,97400.44
2023-01-28T08:39:00.698Z,97402.16
2023-01-28T08:41:28.717Z,97399.31
2023-01-28T08:43:58.456Z,97405.44
2023-01-28T08:46:26.768Z,97401.94
2023-01-28T08:48:54.881Z,97405.44
2023-01-28T08:51:23.146Z,97402.72
2023-01-28T08:53:51.619Z,97415.16
2023-01-28T08:56:19.787Z,97414.19
2023-01-28T08:58:47.877Z,97422.09
2023-01-28T09:01:17.515Z,97421.97
2023-01-28T09:03:45.751Z,97426.41
2023-01-28T09:06:13.919Z,97438.00
2023-01-28T09:08:41.995Z,97437.91
2023-01-28T09:11:10.042Z,97441.47
2023-01-28T09:13:38.127Z,97440.47
2023-01-28T09:16:06.727Z,97443.94
2023-01-28T09:18:36.518Z,97441.25
2023-01-28T09:21:07.115Z,97449.19
2023-01-28T09:23:36.333Z,97448.34
2023-01-28T09:26:04.565Z,97457.25
2023-01-28T09:28:32.937Z,97443.84
2023-01-28T09:31:04.766Z,97454.47
2023-01-28T09:33:33.158Z,97454.47
2023-01-28T09:36:02.981Z,97452.56
2023-01-28T09:38:31.736Z,97447.97
2023-01-28T09:41:00.007Z,97456.00
2023-01-28T09:43:40.807Z,97461.38
2023-01-28T09:46:11.737Z,97456.00
2023-01-28T09:48:41.331Z,97456.97
2023-01-28T09:51:12.267Z,97455.16
2023-01-28T09:53:42.283Z,97458.63
2023-01-28T09:56:12.920Z,97453.25
2023-01-28T09:58:42.871Z,97454.97
2023-01-28T10:01:24.115Z,97455.84
2023-01-28T10:03:54.764Z,97447.78
2023-01-28T10:06:28.796Z,97453.03
2023-01-28T10:09:08.238Z,97454.03
2023-01-28T10:11:45.279Z,97456.78
2023-01-28T10:14:16.280Z,97458.78
2023-01-28T10:16:44.984Z,97449.03
2023-01-28T10:19:17.138Z,97451.63
2023-01-28T10:21:48.727Z,97451.63
2023-01-28T10:24:19.878Z,97454.28
2023-01-28T10:26:48.034Z,97454.28
2023-01-28T10:29:18.422Z,97454.28
2023-01-28T10:31:53.298Z,97457.84
2023-01-28T10:34:21.540Z,97457.84
2023-01-28T10:36:51.062Z,97456.97
2023-01-28T10:39:21.203Z,97450.63
2023-01-28T10:41:57.895Z,97450.63
2023-01-28T10:44:31.997Z,97455.06
2023-01-28T10:47:02.731Z,97449.69
2023-01-28T10:49:31.073Z,97455.06
2023-01-28T10:52:00.618Z,97451.41
2023-01-28T10:54:29.754Z,97456.78
2023-01-28T10:57:00.635Z,97448.72
2023-01-28T10:59:29.511Z,97455.72
2023-01-28T11:01:58.774Z,97449.59
2023-01-28T11:04:29.715Z,97451.34
2023-01-28T11:07:13.815Z,97445.97
2023-01-28T11:09:46.645Z,97445.88
2023-01-28T11:12:19.243Z,97444.06
2023-01-28T11:14:51.406Z,97448.44
2023-01-28T11:17:19.821Z,97445.75
2023-01-28T11:19:48.017Z,97438.59
2023-01-28T11:22:22.020Z,97442.22
2023-01-28T11:24:51.679Z,97439.47
2023-01-28T11:27:20.121Z,97438.59
2023-01-28T11:29:48.453Z,97445.66
2023-01-28T11:32:20.185Z,97435.91
2023-01-28T11:34:51.956Z,97437.59
2023-01-28T11:37:22.799Z,97433.00
2023-01-28T11:40:01.925Z,97430.44
2023-01-28T11:42:30.137Z,97433.88
2023-01-28T11:44:58.360Z,97422.28
2023-01-28T11:47:43.489Z,97431.19
2023-01-28T11:50:17.826Z,97424.88
2023-01-28T11:53:08.391Z,97419.53
2023-01-28T11:55:46.656Z,97423.91
2023-01-28T11:58:24.139Z,97420.34
2023-01-28T12:01:02.210Z,97413.28
2023-01-28T12:03:51.484Z,97417.78
2023-01-28T12:06:27.992Z,97409.84
2023-01-28T12:09:00.842Z,97415.19
2023-01-28T12:12:05.986Z,97413.38
2023-01-28T12:14:37.788Z,97402.66
2023-01-28T12:17:13.198Z,97414.22
2023-01-28T12:19:52.403Z,97408.03
2023-01-28T12:22:50.167Z,97408.97
2023-01-28T12:25:26.074Z,97401.78
2023-01-28T12:28:00.905Z,97404.47
2023-01-28T12:30:36.944Z,97406.28
2023-01-28T12:33:20.717Z,97399.09
2023-01-28T12:35:55.836Z,97405.50
2023-01-28T12:38:28.629Z,97399.09
2023-01-28T12:41:00.555Z,97398.22
2023-01-28T12:43:44.032Z,97399.00
2023-01-28T12:46:16.222Z,97397.94
2023-01-28T12:48:45.172Z,97398.81
2023-01-28T12:51:15.301Z,97399.66
2023-01-28T12:53:47.148Z,97406.75
2023-01-28T12:56:17.022Z,97407.63
2023-01-28T12:58:48.737Z,97404.09
2023-01-28T13:01:19.572Z,97396.91
2023-01-28T13:03:51.355Z,97408.56
2023-01-28T13:06:22.765Z,97405.91
2023-01-28T13:08:50.934Z,97405.13
2023-01-28T13:11:19.000Z,97402.53
2023-01-28T13:13:48.910Z,97407.03
2023-01-28T13:16:19.365Z,97399.09
2023-01-28T13:18:49.516Z,97410.69
2023-01-28T13:21:32.452Z,97406.19
2023-01-28T13:24:08.464Z,97409.72
2023-01-28T13:26:44.864Z,97408.78
2023-01-28T13:29:31.361Z,97413.19
2023-01-28T13:32:01.135Z,97413.19
2023-01-28T13:34:34.745Z,97415.00
2023-01-28T13:37:06.159Z,97418.56
2023-01-28T13:39:35.575Z,97422.09
2023-01-28T13:42:11.969Z,97421.13
2023-01-28T13:44:41.522Z,97426.50
2023-01-28T13:47:21.733Z,97427.38
2023-01-28T13:49:51.181Z,97432.84
2023-01-28T13:52:21.662Z,97440.78
2023-01-28T13:54:52.535Z,97442.59
2023-01-28T13:57:49.387Z,97446.06
2023-01-28T14:00:23.885Z,97434.47
2023-01-28T14:03:47.855Z,97444.25
2023-01-28T14:06:35.261Z,97450.47
2023-01-28T14:09:23.885Z,97450.47
2023-01-28T14:12:17.491Z,97454.97
2023-01-28T14:15:17.695Z,97445.28
2023-01-28T14:17:47.793Z,97456.03
2023-01-28T14:20:19.637Z,97448.94
2023-01-28T14:22:48.127Z,97455.25
2023-01-28T14:25:18.568Z,97460.63
2023-01-28T14:27:48.854Z,97462.47
2023-01-28T14:30:20.023Z,97462.47
2023-01-28T14:32:50.490Z,97465.16
2023-01-28T14:35:21.063Z,97469.66
2023-01-28T14:37:49.255Z,97473.19
2023-01-28T14:40:17.906Z,97479.50
2023-01-28T14:42:47.333Z,97475.88
2023-01-28T14:45:24.387Z,97479.41
2023-01-28T14:48:05.231Z,97478.56
2023-01-28T14:50:44.991Z,97484.78
2023-01-28T14:53:22.372Z,97477.59
2023-01-28T14:55:53.656Z,97483.94
2023-01-28T14:58:23.391Z,97492.94
2023-01-28T15:00:55.190Z,97496.38
2023-01-28T15:03:25.683Z,97504.44
2023-01-28T15:06:05.043Z,97498.13
2023-01-28T15:08:33.389Z,97501.84
2023-01-28T15:11:01.769Z,97498.28
2023-01-28T15:13:30.519Z,97497.63
2023-01-28T15:16:00.764Z,97500.47
2023-01-28T15:18:33.531Z,97505.84
2023-01-28T15:21:01.685Z,97506.63
2023-01-28T15:23:32.671Z,97517.28
2023-01-28T15:26:00.800Z,97518.13
2023-01-28T15:28:30.066Z,97517.19
2023-01-28T15:30:59.563Z,97525.13
2023-01-28T15:33:27.870Z,97528.69
2023-01-28T15:35:58.253Z,97526.88
2023-01-28T15:38:28.970Z,97523.22
2023-01-28T15:40:58.428Z,97530.50
2023-01-28T15:43:28.055Z,97527.81
2023-01-28T15:45:56.553Z,97528.69
2023-01-28T15:48:25.086Z,97527.72
2023-01-28T15:51:00.757Z,97526.78
2023-01-28T15:53:28.959Z,97534.72
2023-01-28T15:56:05.561Z,97537.41
2023-01-28T15:58:37.086Z,97532.91
2023-01-28T16:01:13.786Z,97541.84
2023-01-28T16:03:42.746Z,97549.03
2023-01-28T16:06:13.334Z,97549.97
2023-01-28T16:08:43.338Z,97549.97
2023-01-28T16:11:11.411Z,97558.00
2023-01-28T16:13:42.988Z,97560.69
2023-01-28T16:16:11.258Z,97561.66
2023-01-28T16:18:41.081Z,97563.38
2023-01-28T16:21:10.550Z,97571.44
2023-01-28T16:23:40.560Z,97573.28
2023-01-28T16:26:20.823Z,97570.59
2023-01-28T16:28:48.930Z,97574.13
2023-01-28T16:31:17.016Z,97574.13
2023-01-28T16:33:45.197Z,97581.22
2023-01-28T16:36:13.702Z,97583.91
2023-01-28T16:38:43.262Z,97590.22
2023-01-28T16:41:15.605Z,97588.41
2023-01-28T16:43:43.725Z,97591.78
2023-01-28T16:46:13.427Z,97593.41
2023-01-28T16:48:41.549Z,97603.28
2023-01-28T16:51:14.687Z,97596.19
2023-01-28T16:53:44.388Z,97595.31
2023-01-28T16:56:35.947Z,97592.75
2023-01-28T16:59:03.054Z,97605.28
2023-01-28T17:01:31.458Z,97607.97
2023-01-28T17:03:59.561Z,97605.28
2023-01-28T17:06:27.766Z,97600.88
2023-01-28T17:08:57.247Z,97611.63
2023-01-28T17:11:25.722Z,97616.03
2023-01-28T17:13:53.866Z,97610.56
2023-01-28T17:16:21.997Z,97612.47
2023-01-28T17:18:51.390Z,97625.06
2023-01-28T17:21:19.500Z,97620.53
2023-01-28T17:23:47.592Z,97620.53
2023-01-28T17:26:17.296Z,97627.72
2023-01-28T17:28:45.500Z,97635.78
2023-01-28T17:31:14.768Z,97634.66
2023-01-28T17:33:43.063Z,97630.13
2023-01-28T17:36:11.281Z,97635.50
2023-01-28T17:38:39.482Z,97644.41
2023-01-28T17:41:08.510Z,97639.16
2023-01-28T17:43:38.136Z,97647.97
2023-01-28T17:46:11.881Z,97644.31
2023-01-28T17:48:40.124Z,97651.53
2023-01-28T17:51:08.235Z,97652.38
2023-01-28T17:53:36.644Z,97653.34
2023-01-28T17:56:04.942Z,97659.66
2023-01-28T17:58:33.095Z,97662.34
2023-01-28T18:01:08.918Z,97660.63
2023-01-28T18:03:37.140Z,97659.59
2023-01-28T18:06:07.323Z,97662.28
2023-01-28T18:08:35.983Z,97663.09
2023-01-28T18:11:04.060Z,97668.56
2023-01-28T18:13:32.252Z,97666.66
2023-01-28T18:16:00.314Z,97663.97
2023-01-28T18:18:29.819Z,97669.44
2023-01-28T18:20:58.734Z,97670.31
2023-01-28T18:23:26.999Z,97672.13
2023-01-28T18:25:57.275Z,97670.31
2023-01-28T18:28:25.542Z,97668.47
2023-01-28T18:30:53.662Z,97674.72
2023-01-28T18:33:22.034Z,97678.38
2023-01-28T18:35:51.544Z,97674.81
2023-01-28T18:38:19.735Z,97671.16
2023-01-28T18:40:47.810Z,97678.38
2023-01-28T18:43:15.982Z,97683.66
2023-01-28T18:45:45.660Z,97685.34
2023-01-28T18:48:13.888Z,97688.03
2023-01-28T18:50:41.943Z,97689.78
2023-01-28T18:53:11.487Z,97694.28
2023-01-28T18:55:39.554Z,97696.09
2023-01-28T18:58:07.645Z,97695.16
2023-01-28T19:00:35.696Z,97705.91
2023-01-28T19:03:03.821Z,97699.66
2023-01-28T19:05:36.109Z,97702.25
2023-01-28T19:08:05.101Z,97701.41
2023-01-28T19:10:34.589Z,97699.56
2023-01-28T19:13:02.856Z,97707.63
2023-01-28T19:15:31.168Z,97697.84
2023-01-28T19:17:59.328Z,97699.56
2023-01-28T19:20:27.493Z,97706.78
2023-01-28T19:22:55.619Z,97705.91
2023-01-28T19:25:23.887Z,97704.94
2023-01-28T19:27:55.724Z,97710.22
2023-01-28T19:30:23.895Z,97712.97
2023-01-28T19:32:54.028Z,97718.28
2023-01-28T19:35:22.211Z,97720.09
2023-01-28T19:37:50.367Z,97721.81
2023-01-28T19:40:18.965Z,97718.28
2023-01-28T19:42:47.089Z,97721.81
2023-01-28T19:45:16.823Z,97722.69
2023-01-28T19:47:45.140Z,97724.59
2023-01-28T19:50:13.265Z,97730.94
2023-01-28T19:52:41.383Z,97725.47
2023-01-28T19:55:10.541Z,97728.16
2023-01-28T19:57:38.656Z,97720.09
2023-01-28T20:00:08.278Z,97729.88
2023-01-28T20:02:37.841Z,97724.44
2023-01-28T20:05:06.691Z,97727.19
2023-01-28T20:07:34.769Z,97735.25
2023-01-28T20:10:03.033Z,97735.16
2023-01-28T20:12:31.328Z,97737.84
2023-01-28T20:14:59.573Z,97737.75
2023-01-28T20:17:28.576Z,97745.81
2023-01-28T20:19:58.054Z,97743.13
2023-01-28T20:22:26.129Z,97745.81
2023-01-28T20:24:57.286Z,97743.28
2023-01-28T20:27:25.598Z,97745.97
2023-01-28T20:29:53.782Z,97748.50
2023-01-28T20:32:23.208Z,97751.19
2023-01-28T20:34:51.987Z,97750.31
2023-01-28T20:37:21.423Z,97753.88
2023-01-28T20:39:49.575Z,97753.88
2023-01-28T20:42:17.623Z,97756.66
2023-01-28T20:44:45.742Z,97750.41
2023-01-28T20:47:13.822Z,97755.69
2023-01-28T20:49:42.040Z,97755.59
2023-01-28T20:52:10.101Z,97757.34
2023-01-28T20:54:39.606Z,97758.28
2023-01-28T20:57:07.769Z,97762.88
2023-01-28T20:59:36.556Z,97764.59
2023-01-28T21:02:05.439Z,97764.72
2023-01-28T21:04:34.439Z,97768.06
2023-01-28T21:07:02.576Z,97759.16
2023-01-28T21:09:30.784Z,97758.97
2023-01-28T21:12:00.274Z,97758.00
2023-01-28T21:14:28.329Z,97766.94
2023-01-28T21:16:56.528Z,97768.66
2023-01-28T21:19:24.945Z,97765.97
2023-01-28T21:21:53.046Z,97765.13
2023-01-28T21:24:21.117Z,97770.66
2023-01-28T21:26:49.220Z,97771.69
2023-01-28T21:29:18.944Z,97769.09
2023-01-28T21:31:47.129Z,97773.59
2023-01-28T21:34:16.056Z,97777.25
2023-01-28T21:36:44.249Z,97772.81
2023-01-28T21:39:12.342Z,97780.81
2023-01-28T21:41:40.871Z,97781.75
2023-01-28T21:44:08.919Z,97788.94
2023-01-28T21:46:38.452Z,97788.94
2023-01-28T21:49:06.535Z,97794.41
2023-01-28T21:51:36.572Z,97793.47
2023-01-28T21:54:05.098Z,97792.69
2023-01-28T21:56:33.188Z,97798.91
2023-01-28T21:59:18.857Z,97790.00
2023-01-28T22:01:48.962Z,97792.75
2023-01-28T22:04:17.159Z,97789.28
2023-01-28T22:06:45.406Z,97793.81
2023-01-28T22:09:14.133Z,97797.34
2023-01-28T22:11:42.786Z,97789.38
2023-01-28T22:14:11.131Z,97801.00
2023-01-28T22:16:39.216Z,97795.72
2023-01-28T22:19:08.713Z,97793.97
2023-01-28T22:21:41.163Z,97803.84
2023-01-28T22:24:11.391Z,97802.13
2023-01-28T22:26:39.608Z,97806.69
2023-01-28T22:29:07.716Z,97804.91
2023-01-28T22:31:35.985Z,97801.44
2023-01-28T22:34:04.423Z,97805.16
2023-01-28T22:36:33.957Z,97806.06
2023-01-28T22:39:02.263Z,97807.94
2023-01-28T22:41:30.426Z,97802.63
2023-01-28T22:44:01.501Z,97798.13
2023-01-28T22:46:29.805Z,97805.38
2023-01-28T22:48:57.937Z,97807.19
2023-01-28T22:51:26.786Z,97802.72
2023-01-28T22:53:56.233Z,97811.78
2023-01-28T22:56:25.175Z,97805.63
2023-01-28T22:58:55.575Z,97805.63
2023-01-28T23:01:23.777Z,97802.97
2023-01-28T23:03:52.043Z,97802.97
2023-01-28T23:06:20.890Z,97807.47
2023-01-28T23:08:49.063Z,97801.34
2023-01-28T23:11:25.308Z,97804.06
2023-01-28T23:14:10.958Z,97801.50
2023-01-28T23:17:02.505Z,97803.16
2023-01-28T23:19:48.065Z,97803.31
2023-01-28T23:22:34.571Z,97802.38
2023-01-28T23:25:02.695Z,97812.31
2023-01-28T23:27:32.403Z,97811.34
2023-01-28T23:30:00.594Z,97799.00
2023-01-28T23:32:28.623Z,97809.72
2023-01-28T23:34:57.358Z,97800.81
2023-01-28T23:37:25.385Z,97818.72
2023-01-28T23:39:53.518Z,97815.94
2023-01-28T23:42:23.556Z,97817.78
2023-01-28T23:44:53.218Z,97816.13
2023-01-28T23:47:21.261Z,97822.44
2023-01-28T23:49:49.389Z,97816.31
2023-01-28T23:52:17.507Z,97816.31
2023-01-28T23:54:45.684Z,97814.56
2023-01-28T23:57:13.791Z,97812.84
2023-01-28T23:59:42.542Z,97810.16
